createdAt,value
2022-12-17T00:14:30.126Z,99.90
2022-12-17T00:29:52.030Z,99.90
2022-12-17T00:45:14.221Z,99.90
2022-12-17T01:00:36.235Z,99.90
2022-12-17T01:15:58.410Z,99.90
2022-12-17T01:31:20.633Z,99.90
2022-12-17T01:46:44.347Z,99.90
2022-12-17T02:02:06.584Z,99.90
2022-12-17T02:17:34.879Z,99.90
2022-12-17T02:32:59.510Z,99.90
2022-12-17T02:48:24.610Z,99.50
2022-12-17T03:03:50.479Z,99.70
2022-12-17T03:19:13.211Z,99.80
2022-12-17T03:34:35.356Z,99.80
2022-12-17T03:49:57.337Z,99.90
2022-12-17T04:05:33.954Z,99.80
2022-12-17T04:20:55.620Z,99.30
2022-12-17T04:36:17.599Z,99.60
2022-12-17T04:51:39.620Z,99.90
2022-12-17T05:07:01.614Z,99.90
2022-12-17T05:22:23.426Z,99.60
2022-12-17T05:37:45.240Z,99.60
2022-12-17T05:53:07.014Z,99.70
2022-12-17T06:08:28.838Z,99.90
2022-12-17T06:23:50.678Z,99.80
2022-12-17T06:39:12.675Z,99.60
2022-12-17T06:54:34.470Z,99.50
2022-12-17T07:09:56.311Z,99.60
2022-12-17T07:25:19.231Z,99.50
2022-12-17T07:40:41.064Z,99.90
2022-12-17T07:56:02.722Z,99.90
2022-12-17T08:11:24.695Z,99.70
2022-12-17T08:26:48.320Z,99.70
2022-12-17T08:42:10.267Z,99.40
2022-12-17T08:57:32.571Z,99.40
2022-12-17T09:12:55.927Z,99.40
2022-12-17T09:28:21.660Z,99.50
2022-12-17T09:43:52.718Z,99.90
2022-12-17T09:59:14.629Z,99.60
2022-12-17T10:14:37.749Z,99.70
2022-12-17T10:30:01.381Z,99.60
2022-12-17T10:45:36.848Z,99.90
2022-12-17T11:01:02.756Z,99.90
2022-12-17T11:16:35.015Z,99.50
2022-12-17T11:32:29.748Z,99.60
2022-12-17T11:48:02.361Z,99.20
2022-12-17T12:03:38.807Z,98.80
2022-12-17T12:19:09.039Z,99.00
2022-12-17T12:34:37.613Z,98.60
2022-12-17T12:50:07.305Z,98.20
2022-12-17T13:05:33.913Z,98.00
2022-12-17T13:20:39.242Z,98.10
2022-12-17T13:35:50.460Z,97.70
2022-12-17T13:50:59.818Z,97.70
2022-12-17T14:06:05.554Z,97.70
2022-12-17T14:21:11.566Z,97.50
2022-12-17T14:36:21.828Z,97.40
2022-12-17T14:51:31.295Z,96.70
2022-12-17T15:06:35.841Z,96.00
2022-12-17T15:21:40.619Z,94.60
2022-12-17T15:36:45.080Z,94.60
2022-12-17T15:51:49.564Z,95.10
2022-12-17T16:06:54.452Z,95.20
2022-12-17T16:21:58.898Z,95.00
2022-12-17T16:37:03.461Z,95.40
2022-12-17T16:52:08.890Z,95.60
2022-12-17T17:07:13.429Z,95.10
2022-12-17T17:22:17.990Z,95.10
2022-12-17T17:37:22.520Z,95.40
2022-12-17T17:52:27.055Z,96.00
2022-12-17T18:07:31.798Z,96.40
2022-12-17T18:22:36.249Z,96.40
2022-12-17T18:37:40.983Z,96.30
2022-12-17T18:52:45.691Z,96.50
2022-12-17T19:07:50.248Z,96.50
2022-12-17T19:22:54.630Z,96.30
2022-12-17T19:37:59.063Z,96.10
2022-12-17T19:53:03.591Z,95.90
2022-12-17T20:08:09.177Z,95.70
2022-12-17T20:23:14.079Z,95.40
2022-12-17T20:38:18.760Z,95.20
2022-12-17T20:53:23.452Z,94.70
2022-12-17T21:08:27.915Z,94.90
2022-12-17T21:23:32.897Z,95.30
2022-12-17T21:38:37.809Z,96.00
2022-12-17T21:53:43.763Z,95.30
